Flight Track Log - Related Links

Times and Time Zones

All times are in EDT time to prevent confusion due to time zone crossing. See the XOJ549 flight status page for this flight to view local times or setup timezone preferences in your user account.

Time Position Orientation Groundspeed Altitude Reporting Facility
EDT Latitude Longitude Course Direction KTS MPH feet Rate Location/Type
Fri 11:23:15 AM 30.3292 -86.4686 339° North 213 245 3,900  Level Jacksonville Center
Fri 11:24:16 AM 30.3756 -86.5258 313° West 278 320 7,100 3,025 Climbing Jacksonville Center
Fri 11:25:16 AM 30.4536 -86.5647 337° Northwest 290 334 10,000 2,100 Climbing Jacksonville Center
Fri 11:26:16 AM 30.5350 -86.5681 358° North 287 330 11,300 2,300 Climbing Jacksonville Center
Fri 11:27:00 AM 30.4016 -86.4722 339° North  Level FlightAware Approximate
Fri 11:27:16 AM 30.6331 -86.5694 359° North 313 360 14,600  Level Jacksonville Center
Fri 11:28:00 AM 30.4914 -86.5128 339° North  Level FlightAware Approximate
Fri 11:28:16 AM 30.7353 -86.5758 357° North 343 395 17,800  Level Jacksonville Center
Fri 11:29:15 AM 30.8414 -86.5822 357° North 362 417 20,300 2,200 Climbing Jacksonville Center
Fri 11:30:16 AM 30.9494 -86.6011 351° North 380 437 22,200 1,686 Climbing Jacksonville Center
Fri 11:31:16 AM 30.9925 -86.6947 298° West 344 396 23,700 1,650 Climbing Jacksonville Center
Fri 11:32:16 AM 30.9950 -86.8183 271° West 317 365 25,500 1,950 Climbing Jacksonville Center
Fri 11:33:16 AM 30.9828 -86.9439 264° West 351 404 27,600 1,950 Climbing Jacksonville Center
Fri 11:34:16 AM 30.9683 -87.0717 263° West 372 428 29,400 1,565 Climbing Jacksonville Center
Fri 11:35:57 AM 30.9381 -87.3092 262° West 429 494 31,800 1,667 Climbing Houston Center
Fri 11:36:58 AM 30.9225 -87.4467 263° West 430 495 33,900 2,000 Climbing Houston Center
Fri 11:38:00 AM 30.9078 -87.5803 263° West 418 481 35,900 1,805 Climbing Houston Center
Fri 11:39:01 AM 30.8919 -87.7061 262° West 411 473 37,600 1,463 Climbing Houston Center
Fri 11:40:03 AM 30.8761 -87.8372 262° West 410 472 38,900 1,902 Climbing Houston Center
Fri 11:41:04 AM 30.8589 -87.9883 262° West 395 455 41,500 1,854 Climbing Houston Center
Fri 11:42:06 AM 30.8425 -88.1097 261° West 383 441 42,700 726 Climbing Houston Center
Fri 11:43:08 AM 30.8222 -88.2322 259° West 386 444 43,000 98 Climbing Houston Center
Fri 11:44:09 AM 30.7844 -88.3514 250° West 392 451 42,900  Descending Houston Center
Fri 11:45:11 AM 30.7486 -88.4678 250° West 385 443 43,000 49 Climbing Houston Center
Fri 11:46:12 AM 30.7133 -88.5847 251° West 384 442 43,000  Level Houston Center
Fri 11:47:14 AM 30.6728 -88.7164 250° West 389 448 43,000  Level Houston Center
Fri 11:48:15 AM 30.6353 -88.8364 250° West 395 455 43,000  Level Houston Center
Fri 11:49:17 AM 30.5958 -88.9669 251° West 397 457 43,000 -48 Level Houston Center
Fri 11:50:19 AM 30.5617 -89.0842 251° West 385 443 42,900  Descending Houston Center
Fri 11:51:20 AM 30.5250 -89.1981 250° West 377 434 43,000 293 Climbing Houston Center
Fri 11:52:22 AM 30.4894 -89.3150 251° West 383 441 43,500 732 Climbing Houston Center
Fri 11:53:23 AM 30.4536 -89.4303 250° West 381 438 44,500 732 Climbing Houston Center
Fri 11:54:25 AM 30.4186 -89.5425 250° West 372 428 45,000 244 Climbing Houston Center
Fri 11:55:26 AM 30.3728 -89.6744 248° West 409 471 45,000  Level Houston Center
Fri 11:56:28 AM 30.3344 -89.7917 249° West 393 452 45,000  Level Houston Center
Fri 11:57:30 AM 30.2972 -89.9092 250° West 389 448 45,000  Level Houston Center
Fri 11:58:31 AM 30.2642 -90.0250 252° West 386 444 45,000  Level Houston Center
Fri 11:59:33 AM 30.2264 -90.1406 249° West 394 453 45,000  Level Houston Center
Fri 12:00:35 PM 30.1808 -90.2806 249° West 389 448 45,000 -49 Level Houston Center
Fri 12:01:36 PM 30.1442 -90.3961 250° West 385 443 44,900  Descending Houston Center
Fri 12:02:38 PM 30.1064 -90.5119 249° West 385 443 45,000 49 Climbing Houston Center
Fri 12:03:39 PM 30.0675 -90.6278 249° West 386 444 45,000  Level Houston Center
Fri 12:04:41 PM 30.0297 -90.7467 250° West 392 451 45,000  Level Houston Center
Fri 12:05:43 PM 29.9903 -90.8644 249° West 395 455 45,000  Level Houston Center
Fri 12:06:44 PM 29.9511 -90.9847 249° West 400 460 45,000  Level Houston Center
Fri 12:07:46 PM 29.9042 -91.1283 249° West 400 460 45,000  Level Houston Center
Fri 12:08:48 PM 29.8639 -91.2475 249° West 400 460 45,000  Level Houston Center
Fri 12:09:49 PM 29.8242 -91.3689 249° West 404 465 45,000  Level Houston Center
Fri 12:10:51 PM 29.7844 -91.4883 249° West 401 461 45,000  Level Houston Center
Fri 12:11:53 PM 29.7444 -91.6064 249° West 398 458 45,000  Level Houston Center
Fri 12:12:55 PM 29.7039 -91.7283 249° West 395 455 45,000  Level Houston Center
Fri 12:13:56 PM 29.6636 -91.8469 249° West 398 458 45,000  Level Houston Center
Fri 12:14:58 PM 29.6228 -91.9653 248° West 398 458 45,000  Level Houston Center
Fri 12:16:00 PM 29.5750 -92.1081 249° West 400 460 45,000  Level Houston Center
Fri 12:17:02 PM 29.5344 -92.2272 249° West 400 460 45,000  Level Houston Center
Fri 12:18:03 PM 29.4942 -92.3478 249° West 403 464 45,000 -341 Level Houston Center
Fri 12:19:05 PM 29.4600 -92.4708 252° West 406 467 44,300 -1,452 Descending Houston Center
Fri 12:20:07 PM 29.4625 -92.6036 271° West 414 476 42,000 -2,098 Descending Houston Center
Fri 12:21:08 PM 29.4689 -92.7347 273° West 415 478 40,000 -1,854 Descending Houston Center
Fri 12:22:10 PM 29.4742 -92.8647 273° West 408 470 38,200 -2,177 Descending Houston Center
Fri 12:23:12 PM 29.4811 -92.9936 274° West 405 466 35,500 -2,683 Descending Houston Center
Fri 12:24:13 PM 29.4872 -93.1556 273° West 420 483 32,700 -2,488 Descending Houston Center
Fri 12:25:15 PM 29.4933 -93.2944 273° West 431 496 30,400 -2,177 Descending Houston Center
Fri 12:26:17 PM 29.4986 -93.4303 273° West 428 493 28,200 -2,146 Descending Houston Center
Fri 12:27:18 PM 29.5050 -93.5611 273° West 412 474 26,000 -2,098 Descending Houston Center
Fri 12:28:20 PM 29.5097 -93.6842 273° West 392 451 23,900 -1,984 Descending Houston Center
Fri 12:29:22 PM 29.5139 -93.8056 272° West 383 441 21,900 -1,902 Descending Houston Center
Fri 12:30:23 PM 29.5172 -93.9200 272° West 366 421 20,000 -1,900 Descending Houston Center
Fri 12:31:22 PM 29.5225 -94.0414 273° West 347 399 18,100 -1,842 Descending Houston Center
Fri 12:32:17 PM 29.5264 -94.1394 273° West 339 390 16,500 -1,862 Descending Houston Center
Fri 12:33:18 PM 29.5297 -94.2567 272° West 346 398 14,500 -1,672 Descending Houston Center
Fri 12:34:19 PM 29.5428 -94.3656 278° West 344 396 13,100 -1,179 Descending Houston Center
Fri 12:35:15 PM 29.5783 -94.4500 296° West 312 359 12,200 -1,366 Descending Houston Center
Fri 12:36:22 PM 29.6192 -94.5458 296° West 297 342 10,300 -1,610 Descending Houston Center
Fri 12:37:18 PM 29.6561 -94.6203 300° West 291 335 8,900 -1,377 Descending Houston Center
Fri 12:38:24 PM 29.7231 -94.6842 320° Northwest 288 331 7,500 -1,328 Descending Houston Center
Fri 12:39:20 PM 29.7808 -94.7369 322° Northwest 287 330 6,200 -1,707 Descending Houston Center
Fri 12:40:27 PM 29.8500 -94.8006 321° Northwest 277 319 4,000 -1,442 Descending Houston Center
Fri 12:41:29 PM 29.8861 -94.8731 300° West 271 312 3,100 -622 Descending Houston Center
Fri 12:42:42 PM 29.9203 -94.9672 293° West 268 308 2,600 -513 Descending Houston Center
Fri 12:43:26 PM 29.9386 -95.0256 290° West 267 307 2,100 -286 Descending Houston Center
Fri 12:44:27 PM 29.9667 -95.1017 293° West 234 269 2,100  Level Houston Center
Fri 12:45:29 PM 29.9789 -95.1653 283° West 186 214 2,100 -244 Level Houston Center
Fri 12:46:30 PM 29.9781 -95.2258 269° West 185 213 1,600 -750 Descending Houston Center
Fri 12:47:37 PM 29.9772 -95.2839 269° West 141 162 500 -985 Descending Houston Center
Fri 12:49:00 PM 29.9833 -95.3333 311° West  Level FlightAware Approximate
Fri 12:56:00 PM 29.9844 -95.3414 311° West  Level Estimated

Login

Don't have an account? Register now (free) for customized features, flight alerts, and more!